sensor_id;sensor_type;location;lat;lon;timestamp;P1;durP1;ratioP1;P2;durP2;ratioP2
10987;SDS011;5547;42.672;23.230;2023-03-19T00:00:46;8.37;;;6.20;;
10987;SDS011;5547;42.672;23.230;2023-03-19T00:03:46;8.07;;;6.03;;
10987;SDS011;5547;42.672;23.230;2023-03-19T00:06:47;11.15;;;7.15;;
10987;SDS011;5547;42.672;23.230;2023-03-19T00:09:47;9.80;;;6.50;;
10987;SDS011;5547;42.672;23.230;2023-03-19T00:12:47;10.03;;;6.47;;
10987;SDS011;5547;42.672;23.230;2023-03-19T00:15:48;10.48;;;6.43;;
10987;SDS011;5547;42.672;23.230;2023-03-19T00:18:48;10.73;;;6.03;;
10987;SDS011;5547;42.672;23.230;2023-03-19T00:21:49;9.40;;;6.23;;
10987;SDS011;5547;42.672;23.230;2023-03-19T00:24:50;10.95;;;6.57;;
10987;SDS011;5547;42.672;23.230;2023-03-19T00:27:51;9.15;;;6.60;;
10987;SDS011;5547;42.672;23.230;2023-03-19T00:30:53;10.35;;;7.07;;
10987;SDS011;5547;42.672;23.230;2023-03-19T00:33:55;9.77;;;6.60;;
10987;SDS011;5547;42.672;23.230;2023-03-19T00:36:57;9.80;;;6.97;;
10987;SDS011;5547;42.672;23.230;2023-03-19T00:39:57;10.90;;;6.83;;
10987;SDS011;5547;42.672;23.230;2023-03-19T00:42:58;9.00;;;6.40;;
10987;SDS011;5547;42.672;23.230;2023-03-19T00:45:59;10.98;;;7.00;;
10987;SDS011;5547;42.672;23.230;2023-03-19T00:49:00;10.32;;;7.22;;
10987;SDS011;5547;42.672;23.230;2023-03-19T00:52:00;11.70;;;7.73;;
10987;SDS011;5547;42.672;23.230;2023-03-19T00:55:01;9.90;;;6.93;;
10987;SDS011;5547;42.672;23.230;2023-03-19T00:58:01;11.63;;;6.80;;
10987;SDS011;5547;42.672;23.230;2023-03-19T01:01:02;11.55;;;6.47;;
10987;SDS011;5547;42.672;23.230;2023-03-19T01:04:02;9.87;;;6.40;;
10987;SDS011;5547;42.672;23.230;2023-03-19T01:07:03;9.47;;;6.57;;
10987;SDS011;5547;42.672;23.230;2023-03-19T01:10:03;10.20;;;6.50;;
10987;SDS011;5547;42.672;23.230;2023-03-19T01:13:05;10.57;;;6.43;;
10987;SDS011;5547;42.672;23.230;2023-03-19T01:16:06;9.30;;;6.05;;
10987;SDS011;5547;42.672;23.230;2023-03-19T01:19:06;9.55;;;5.80;;
10987;SDS011;5547;42.672;23.230;2023-03-19T01:22:07;10.30;;;6.87;;
10987;SDS011;5547;42.672;23.230;2023-03-19T01:25:08;9.68;;;6.25;;
10987;SDS011;5547;42.672;23.230;2023-03-19T01:28:11;8.23;;;6.13;;
10987;SDS011;5547;42.672;23.230;2023-03-19T01:31:11;10.63;;;6.80;;
10987;SDS011;5547;42.672;23.230;2023-03-19T01:34:12;9.07;;;6.67;;
10987;SDS011;5547;42.672;23.230;2023-03-19T01:37:12;12.23;;;6.33;;
10987;SDS011;5547;42.672;23.230;2023-03-19T01:40:13;9.17;;;6.60;;
10987;SDS011;5547;42.672;23.230;2023-03-19T01:43:15;11.40;;;6.68;;
10987;SDS011;5547;42.672;23.230;2023-03-19T01:46:26;9.85;;;6.45;;
10987;SDS011;5547;42.672;23.230;2023-03-19T01:49:30;11.07;;;6.83;;
10987;SDS011;5547;42.672;23.230;2023-03-19T01:52:31;10.63;;;7.05;;
10987;SDS011;5547;42.672;23.230;2023-03-19T01:55:33;9.43;;;6.40;;
10987;SDS011;5547;42.672;23.230;2023-03-19T01:58:34;9.20;;;6.20;;
10987;SDS011;5547;42.672;23.230;2023-03-19T02:01:35;9.80;;;5.80;;
10987;SDS011;5547;42.672;23.230;2023-03-19T02:04:42;10.82;;;6.63;;
10987;SDS011;5547;42.672;23.230;2023-03-19T02:07:46;10.73;;;6.72;;
10987;SDS011;5547;42.672;23.230;2023-03-19T02:10:46;8.87;;;6.03;;
10987;SDS011;5547;42.672;23.230;2023-03-19T02:13:48;12.02;;;6.68;;
10987;SDS011;5547;42.672;23.230;2023-03-19T02:16:48;10.87;;;7.03;;
10987;SDS011;5547;42.672;23.230;2023-03-19T02:19:52;10.10;;;6.80;;
10987;SDS011;5547;42.672;23.230;2023-03-19T02:26:29;10.03;;;6.90;;
10987;SDS011;5547;42.672;23.230;2023-03-19T02:29:30;9.95;;;6.82;;
10987;SDS011;5547;42.672;23.230;2023-03-19T02:32:31;12.10;;;8.33;;
10987;SDS011;5547;42.672;23.230;2023-03-19T02:35:32;11.17;;;7.77;;
10987;SDS011;5547;42.672;23.230;2023-03-19T02:38:34;10.68;;;7.53;;
10987;SDS011;5547;42.672;23.230;2023-03-19T02:41:38;12.17;;;7.90;;
10987;SDS011;5547;42.672;23.230;2023-03-19T02:44:40;11.80;;;8.68;;
10987;SDS011;5547;42.672;23.230;2023-03-19T02:47:41;12.60;;;8.20;;
10987;SDS011;5547;42.672;23.230;2023-03-19T02:50:42;13.07;;;8.43;;
10987;SDS011;5547;42.672;23.230;2023-03-19T02:53:42;12.93;;;8.10;;
10987;SDS011;5547;42.672;23.230;2023-03-19T02:56:42;14.18;;;8.57;;
10987;SDS011;5547;42.672;23.230;2023-03-19T02:59:43;12.20;;;7.93;;
10987;SDS011;5547;42.672;23.230;2023-03-19T03:02:43;13.23;;;7.87;;
10987;SDS011;5547;42.672;23.230;2023-03-19T03:05:44;11.32;;;7.15;;
10987;SDS011;5547;42.672;23.230;2023-03-19T03:08:45;10.77;;;7.03;;
10987;SDS011;5547;42.672;23.230;2023-03-19T03:11:45;10.23;;;6.93;;
10987;SDS011;5547;42.672;23.230;2023-03-19T03:14:46;9.68;;;6.53;;
10987;SDS011;5547;42.672;23.230;2023-03-19T03:17:46;8.00;;;6.10;;
10987;SDS011;5547;42.672;23.230;2023-03-19T03:20:47;8.37;;;6.23;;
10987;SDS011;5547;42.672;23.230;2023-03-19T03:23:47;8.13;;;5.68;;
10987;SDS011;5547;42.672;23.230;2023-03-19T03:26:48;8.27;;;5.90;;
10987;SDS011;5547;42.672;23.230;2023-03-19T03:29:48;10.60;;;5.97;;
10987;SDS011;5547;42.672;23.230;2023-03-19T03:32:49;10.15;;;6.05;;
10987;SDS011;5547;42.672;23.230;2023-03-19T03:35:50;9.73;;;6.47;;
10987;SDS011;5547;42.672;23.230;2023-03-19T03:38:51;9.63;;;6.38;;
10987;SDS011;5547;42.672;23.230;2023-03-19T03:41:52;8.97;;;6.30;;
10987;SDS011;5547;42.672;23.230;2023-03-19T03:44:52;7.88;;;6.03;;
10987;SDS011;5547;42.672;23.230;2023-03-19T03:47:53;10.93;;;7.17;;
10987;SDS011;5547;42.672;23.230;2023-03-19T03:50:53;9.80;;;6.60;;
10987;SDS011;5547;42.672;23.230;2023-03-19T03:53:54;9.47;;;6.57;;
10987;SDS011;5547;42.672;23.230;2023-03-19T03:56:54;10.35;;;6.57;;
10987;SDS011;5547;42.672;23.230;2023-03-19T03:59:54;8.17;;;6.10;;
10987;SDS011;5547;42.672;23.230;2023-03-19T04:02:55;10.80;;;6.63;;
10987;SDS011;5547;42.672;23.230;2023-03-19T04:05:55;10.57;;;7.00;;
10987;SDS011;5547;42.672;23.230;2023-03-19T04:08:56;9.98;;;6.90;;
10987;SDS011;5547;42.672;23.230;2023-03-19T04:11:56;10.20;;;7.43;;
10987;SDS011;5547;42.672;23.230;2023-03-19T04:14:57;11.50;;;8.13;;
10987;SDS011;5547;42.672;23.230;2023-03-19T04:17:57;11.90;;;7.80;;
10987;SDS011;5547;42.672;23.230;2023-03-19T04:20:58;12.82;;;8.52;;
10987;SDS011;5547;42.672;23.230;2023-03-19T04:23:58;13.13;;;9.07;;
10987;SDS011;5547;42.672;23.230;2023-03-19T04:26:59;12.48;;;8.63;;
10987;SDS011;5547;42.672;23.230;2023-03-19T04:30:00;14.77;;;9.88;;
10987;SDS011;5547;42.672;23.230;2023-03-19T04:33:01;16.73;;;11.37;;
10987;SDS011;5547;42.672;23.230;2023-03-19T04:36:02;13.82;;;10.15;;
10987;SDS011;5547;42.672;23.230;2023-03-19T04:39:03;18.27;;;13.10;;
10987;SDS011;5547;42.672;23.230;2023-03-19T04:42:04;18.73;;;12.68;;
10987;SDS011;5547;42.672;23.230;2023-03-19T04:45:05;17.52;;;13.32;;
10987;SDS011;5547;42.672;23.230;2023-03-19T04:48:06;17.48;;;12.32;;
10987;SDS011;5547;42.672;23.230;2023-03-19T04:51:07;18.70;;;14.07;;
10987;SDS011;5547;42.672;23.230;2023-03-19T04:54:08;19.93;;;13.07;;
10987;SDS011;5547;42.672;23.230;2023-03-19T04:57:10;18.77;;;13.20;;
10987;SDS011;5547;42.672;23.230;2023-03-19T05:00:10;20.30;;;14.43;;
10987;SDS011;5547;42.672;23.230;2023-03-19T05:03:13;20.38;;;13.85;;
10987;SDS011;5547;42.672;23.230;2023-03-19T05:06:15;19.38;;;13.68;;
10987;SDS011;5547;42.672;23.230;2023-03-19T05:09:16;19.00;;;13.05;;
10987;SDS011;5547;42.672;23.230;2023-03-19T05:12:16;17.10;;;12.40;;
10987;SDS011;5547;42.672;23.230;2023-03-19T05:15:17;16.15;;;11.80;;
10987;SDS011;5547;42.672;23.230;2023-03-19T05:18:17;15.73;;;12.00;;
10987;SDS011;5547;42.672;23.230;2023-03-19T05:21:18;15.90;;;12.30;;
10987;SDS011;5547;42.672;23.230;2023-03-19T05:24:18;16.50;;;12.18;;
10987;SDS011;5547;42.672;23.230;2023-03-19T05:27:18;18.13;;;12.63;;
10987;SDS011;5547;42.672;23.230;2023-03-19T05:30:19;27.07;;;14.97;;
10987;SDS011;5547;42.672;23.230;2023-03-19T05:33:19;22.53;;;14.10;;
10987;SDS011;5547;42.672;23.230;2023-03-19T05:36:21;13.00;;;8.93;;
10987;SDS011;5547;42.672;23.230;2023-03-19T05:39:22;16.87;;;11.83;;
10987;SDS011;5547;42.672;23.230;2023-03-19T05:42:22;15.27;;;10.90;;
10987;SDS011;5547;42.672;23.230;2023-03-19T05:45:22;16.60;;;12.35;;
10987;SDS011;5547;42.672;23.230;2023-03-19T05:48:23;13.87;;;10.77;;
10987;SDS011;5547;42.672;23.230;2023-03-19T05:51:24;14.38;;;10.70;;
10987;SDS011;5547;42.672;23.230;2023-03-19T05:54:25;16.03;;;10.10;;
10987;SDS011;5547;42.672;23.230;2023-03-19T05:57:26;13.85;;;10.15;;
10987;SDS011;5547;42.672;23.230;2023-03-19T06:00:26;18.57;;;13.60;;
10987;SDS011;5547;42.672;23.230;2023-03-19T06:03:27;19.90;;;15.50;;
10987;SDS011;5547;42.672;23.230;2023-03-19T06:06:27;18.53;;;13.67;;
10987;SDS011;5547;42.672;23.230;2023-03-19T06:09:28;17.80;;;13.10;;
10987;SDS011;5547;42.672;23.230;2023-03-19T06:12:28;21.33;;;16.07;;
10987;SDS011;5547;42.672;23.230;2023-03-19T06:15:30;21.83;;;14.75;;
10987;SDS011;5547;42.672;23.230;2023-03-19T06:18:30;19.20;;;13.83;;
10987;SDS011;5547;42.672;23.230;2023-03-19T06:21:31;23.10;;;15.63;;
10987;SDS011;5547;42.672;23.230;2023-03-19T06:24:31;19.97;;;14.07;;
10987;SDS011;5547;42.672;23.230;2023-03-19T06:27:32;17.70;;;13.87;;
10987;SDS011;5547;42.672;23.230;2023-03-19T06:30:33;18.05;;;13.23;;
10987;SDS011;5547;42.672;23.230;2023-03-19T06:33:33;18.58;;;13.88;;
10987;SDS011;5547;42.672;23.230;2023-03-19T06:36:35;18.02;;;13.30;;
10987;SDS011;5547;42.672;23.230;2023-03-19T06:39:36;19.53;;;13.30;;
10987;SDS011;5547;42.672;23.230;2023-03-19T06:42:37;15.48;;;10.52;;
10987;SDS011;5547;42.672;23.230;2023-03-19T06:45:37;15.67;;;11.60;;
10987;SDS011;5547;42.672;23.230;2023-03-19T06:48:37;19.37;;;14.17;;
10987;SDS011;5547;42.672;23.230;2023-03-19T06:51:38;19.40;;;13.10;;
10987;SDS011;5547;42.672;23.230;2023-03-19T06:54:39;16.15;;;11.15;;
10987;SDS011;5547;42.672;23.230;2023-03-19T06:57:39;17.27;;;11.70;;
10987;SDS011;5547;42.672;23.230;2023-03-19T07:00:40;18.70;;;14.23;;
10987;SDS011;5547;42.672;23.230;2023-03-19T07:03:40;18.00;;;13.57;;
10987;SDS011;5547;42.672;23.230;2023-03-19T07:06:41;17.08;;;12.27;;
10987;SDS011;5547;42.672;23.230;2023-03-19T07:09:41;18.40;;;12.63;;
10987;SDS011;5547;42.672;23.230;2023-03-19T07:12:42;16.57;;;12.97;;
10987;SDS011;5547;42.672;23.230;2023-03-19T07:15:42;15.87;;;11.77;;
10987;SDS011;5547;42.672;23.230;2023-03-19T07:18:42;16.07;;;11.67;;
10987;SDS011;5547;42.672;23.230;2023-03-19T07:21:43;13.77;;;10.77;;
10987;SDS011;5547;42.672;23.230;2023-03-19T07:24:43;17.97;;;12.10;;
10987;SDS011;5547;42.672;23.230;2023-03-19T07:27:44;19.60;;;12.50;;
10987;SDS011;5547;42.672;23.230;2023-03-19T07:30:44;15.77;;;11.23;;
10987;SDS011;5547;42.672;23.230;2023-03-19T07:33:45;14.88;;;10.85;;
10987;SDS011;5547;42.672;23.230;2023-03-19T07:36:45;17.92;;;12.02;;
10987;SDS011;5547;42.672;23.230;2023-03-19T07:39:46;15.57;;;10.20;;
10987;SDS011;5547;42.672;23.230;2023-03-19T07:42:46;14.10;;;9.90;;
10987;SDS011;5547;42.672;23.230;2023-03-19T07:45:47;15.80;;;10.03;;
10987;SDS011;5547;42.672;23.230;2023-03-19T07:48:47;13.90;;;10.77;;
10987;SDS011;5547;42.672;23.230;2023-03-19T07:51:47;14.27;;;10.43;;
10987;SDS011;5547;42.672;23.230;2023-03-19T07:54:48;15.90;;;9.67;;
10987;SDS011;5547;42.672;23.230;2023-03-19T07:57:49;13.45;;;10.30;;
10987;SDS011;5547;42.672;23.230;2023-03-19T08:00:50;14.53;;;11.07;;
10987;SDS011;5547;42.672;23.230;2023-03-19T08:03:50;16.00;;;10.80;;
10987;SDS011;5547;42.672;23.230;2023-03-19T08:06:51;17.45;;;11.65;;
10987;SDS011;5547;42.672;23.230;2023-03-19T08:09:51;15.37;;;11.87;;
10987;SDS011;5547;42.672;23.230;2023-03-19T08:12:52;17.80;;;11.50;;
10987;SDS011;5547;42.672;23.230;2023-03-19T08:15:52;21.33;;;11.50;;
10987;SDS011;5547;42.672;23.230;2023-03-19T08:18:53;17.88;;;11.32;;
10987;SDS011;5547;42.672;23.230;2023-03-19T08:21:53;19.13;;;14.17;;
10987;SDS011;5547;42.672;23.230;2023-03-19T08:24:54;19.50;;;15.23;;
10987;SDS011;5547;42.672;23.230;2023-03-19T08:27:55;18.60;;;13.23;;
10987;SDS011;5547;42.672;23.230;2023-03-19T08:30:55;18.40;;;12.80;;
10987;SDS011;5547;42.672;23.230;2023-03-19T08:33:56;21.60;;;14.97;;
10987;SDS011;5547;42.672;23.230;2023-03-19T08:36:59;19.50;;;14.48;;
10987;SDS011;5547;42.672;23.230;2023-03-19T08:39:59;20.20;;;14.77;;
10987;SDS011;5547;42.672;23.230;2023-03-19T08:43:00;18.48;;;14.00;;
10987;SDS011;5547;42.672;23.230;2023-03-19T08:46:00;21.97;;;17.53;;
10987;SDS011;5547;42.672;23.230;2023-03-19T08:49:02;18.73;;;13.48;;
10987;SDS011;5547;42.672;23.230;2023-03-19T08:52:02;17.83;;;13.87;;
10987;SDS011;5547;42.672;23.230;2023-03-19T08:55:04;18.77;;;13.73;;
10987;SDS011;5547;42.672;23.230;2023-03-19T08:58:04;21.77;;;16.02;;
10987;SDS011;5547;42.672;23.230;2023-03-19T09:01:06;34.07;;;23.53;;
10987;SDS011;5547;42.672;23.230;2023-03-19T09:04:09;22.15;;;17.80;;
10987;SDS011;5547;42.672;23.230;2023-03-19T09:07:10;26.03;;;17.50;;
10987;SDS011;5547;42.672;23.230;2023-03-19T09:10:12;23.83;;;16.73;;
10987;SDS011;5547;42.672;23.230;2023-03-19T09:13:12;24.90;;;19.67;;
10987;SDS011;5547;42.672;23.230;2023-03-19T09:16:13;21.03;;;16.33;;
10987;SDS011;5547;42.672;23.230;2023-03-19T09:19:13;19.02;;;14.95;;
10987;SDS011;5547;42.672;23.230;2023-03-19T09:22:14;37.97;;;26.93;;
10987;SDS011;5547;42.672;23.230;2023-03-19T09:25:14;20.30;;;15.87;;
10987;SDS011;5547;42.672;23.230;2023-03-19T09:28:15;20.75;;;14.10;;
10987;SDS011;5547;42.672;23.230;2023-03-19T09:31:15;17.00;;;12.65;;
10987;SDS011;5547;42.672;23.230;2023-03-19T09:34:16;16.90;;;11.77;;
10987;SDS011;5547;42.672;23.230;2023-03-19T09:37:17;17.95;;;12.18;;
10987;SDS011;5547;42.672;23.230;2023-03-19T09:40:21;126.30;;;60.93;;
10987;SDS011;5547;42.672;23.230;2023-03-19T09:43:33;35.75;;;24.88;;
10987;SDS011;5547;42.672;23.230;2023-03-19T09:50:19;15.95;;;11.93;;
10987;SDS011;5547;42.672;23.230;2023-03-19T09:56:47;13.65;;;9.50;;
10987;SDS011;5547;42.672;23.230;2023-03-19T09:59:48;16.20;;;10.50;;
10987;SDS011;5547;42.672;23.230;2023-03-19T10:02:53;14.73;;;10.77;;
10987;SDS011;5547;42.672;23.230;2023-03-19T10:06:22;14.93;;;10.57;;
10987;SDS011;5547;42.672;23.230;2023-03-19T10:09:51;13.40;;;9.60;;
10987;SDS011;5547;42.672;23.230;2023-03-19T10:16:29;11.63;;;9.43;;
10987;SDS011;5547;42.672;23.230;2023-03-19T10:19:37;11.75;;;8.90;;
10987;SDS011;5547;42.672;23.230;2023-03-19T10:22:45;13.35;;;9.50;;
10987;SDS011;5547;42.672;23.230;2023-03-19T10:25:51;11.43;;;8.77;;
10987;SDS011;5547;42.672;23.230;2023-03-19T10:35:40;12.97;;;9.47;;
10987;SDS011;5547;42.672;23.230;2023-03-19T10:38:43;12.48;;;9.32;;
10987;SDS011;5547;42.672;23.230;2023-03-19T10:45:13;9.63;;;7.97;;
10987;SDS011;5547;42.672;23.230;2023-03-19T10:48:25;10.65;;;8.32;;
10987;SDS011;5547;42.672;23.230;2023-03-19T10:51:26;9.85;;;8.02;;
10987;SDS011;5547;42.672;23.230;2023-03-19T10:54:26;11.73;;;8.13;;
10987;SDS011;5547;42.672;23.230;2023-03-19T10:57:28;10.68;;;7.82;;
10987;SDS011;5547;42.672;23.230;2023-03-19T11:00:31;12.57;;;8.65;;
10987;SDS011;5547;42.672;23.230;2023-03-19T11:03:50;13.30;;;9.33;;
10987;SDS011;5547;42.672;23.230;2023-03-19T11:06:55;12.30;;;8.37;;
10987;SDS011;5547;42.672;23.230;2023-03-19T11:10:01;11.20;;;8.15;;
10987;SDS011;5547;42.672;23.230;2023-03-19T11:13:11;11.20;;;8.27;;
10987;SDS011;5547;42.672;23.230;2023-03-19T11:16:20;12.18;;;8.50;;
10987;SDS011;5547;42.672;23.230;2023-03-19T11:19:22;10.93;;;8.02;;
10987;SDS011;5547;42.672;23.230;2023-03-19T11:22:34;12.03;;;7.97;;
10987;SDS011;5547;42.672;23.230;2023-03-19T11:25:46;12.10;;;8.87;;
10987;SDS011;5547;42.672;23.230;2023-03-19T11:28:50;12.53;;;7.90;;
10987;SDS011;5547;42.672;23.230;2023-03-19T11:35:13;10.93;;;7.97;;
10987;SDS011;5547;42.672;23.230;2023-03-19T11:38:24;9.93;;;7.55;;
10987;SDS011;5547;42.672;23.230;2023-03-19T11:45:11;9.70;;;7.20;;
10987;SDS011;5547;42.672;23.230;2023-03-19T11:52:03;12.68;;;7.80;;
10987;SDS011;5547;42.672;23.230;2023-03-19T11:55:37;10.95;;;7.60;;
10987;SDS011;5547;42.672;23.230;2023-03-19T11:58:45;14.52;;;8.07;;
10987;SDS011;5547;42.672;23.230;2023-03-19T12:05:22;12.65;;;8.75;;
10987;SDS011;5547;42.672;23.230;2023-03-19T12:08:32;15.35;;;8.52;;
10987;SDS011;5547;42.672;23.230;2023-03-19T12:31:27;15.18;;;9.80;;
10987;SDS011;5547;42.672;23.230;2023-03-19T12:34:41;13.15;;;9.63;;
10987;SDS011;5547;42.672;23.230;2023-03-19T12:37:59;11.07;;;8.15;;
10987;SDS011;5547;42.672;23.230;2023-03-19T12:41:10;13.03;;;9.07;;
10987;SDS011;5547;42.672;23.230;2023-03-19T12:47:32;10.43;;;7.47;;
10987;SDS011;5547;42.672;23.230;2023-03-19T12:50:39;13.60;;;8.40;;
10987;SDS011;5547;42.672;23.230;2023-03-19T12:53:49;12.03;;;7.90;;
10987;SDS011;5547;42.672;23.230;2023-03-19T12:56:59;11.13;;;8.23;;
10987;SDS011;5547;42.672;23.230;2023-03-19T13:00:20;12.15;;;7.68;;
10987;SDS011;5547;42.672;23.230;2023-03-19T13:10:19;10.25;;;7.97;;
10987;SDS011;5547;42.672;23.230;2023-03-19T13:16:42;10.38;;;7.28;;
10987;SDS011;5547;42.672;23.230;2023-03-19T13:19:56;11.65;;;7.32;;
10987;SDS011;5547;42.672;23.230;2023-03-19T13:23:01;11.27;;;7.50;;
10987;SDS011;5547;42.672;23.230;2023-03-19T13:26:06;11.48;;;8.10;;
10987;SDS011;5547;42.672;23.230;2023-03-19T13:29:19;11.27;;;7.20;;
10987;SDS011;5547;42.672;23.230;2023-03-19T13:32:22;9.48;;;7.20;;
10987;SDS011;5547;42.672;23.230;2023-03-19T13:35:37;10.40;;;6.90;;
10987;SDS011;5547;42.672;23.230;2023-03-19T13:38:43;11.57;;;7.13;;
10987;SDS011;5547;42.672;23.230;2023-03-19T13:41:49;13.10;;;7.70;;
10987;SDS011;5547;42.672;23.230;2023-03-19T13:44:59;9.27;;;6.20;;
10987;SDS011;5547;42.672;23.230;2023-03-19T13:48:21;8.10;;;6.13;;
10987;SDS011;5547;42.672;23.230;2023-03-19T13:51:27;9.40;;;6.63;;
10987;SDS011;5547;42.672;23.230;2023-03-19T13:54:46;9.48;;;6.18;;
10987;SDS011;5547;42.672;23.230;2023-03-19T13:58:12;9.70;;;6.40;;
10987;SDS011;5547;42.672;23.230;2023-03-19T14:01:37;9.88;;;6.55;;
10987;SDS011;5547;42.672;23.230;2023-03-19T14:04:38;9.07;;;6.40;;
10987;SDS011;5547;42.672;23.230;2023-03-19T14:07:39;7.77;;;5.23;;
10987;SDS011;5547;42.672;23.230;2023-03-19T14:10:45;9.95;;;6.53;;
10987;SDS011;5547;42.672;23.230;2023-03-19T14:13:48;12.27;;;7.03;;
10987;SDS011;5547;42.672;23.230;2023-03-19T14:16:51;11.13;;;7.70;;
10987;SDS011;5547;42.672;23.230;2023-03-19T14:19:52;8.40;;;5.95;;
10987;SDS011;5547;42.672;23.230;2023-03-19T14:29:12;9.57;;;5.80;;
10987;SDS011;5547;42.672;23.230;2023-03-19T14:32:17;7.10;;;5.45;;
10987;SDS011;5547;42.672;23.230;2023-03-19T14:35:23;10.40;;;5.85;;
10987;SDS011;5547;42.672;23.230;2023-03-19T14:38:36;10.45;;;6.80;;
10987;SDS011;5547;42.672;23.230;2023-03-19T14:41:41;9.13;;;5.83;;
10987;SDS011;5547;42.672;23.230;2023-03-19T14:45:05;11.10;;;7.67;;
10987;SDS011;5547;42.672;23.230;2023-03-19T14:55:09;8.30;;;5.25;;
10987;SDS011;5547;42.672;23.230;2023-03-19T14:58:15;10.15;;;6.93;;
10987;SDS011;5547;42.672;23.230;2023-03-19T15:01:16;10.33;;;7.10;;
10987;SDS011;5547;42.672;23.230;2023-03-19T15:04:19;9.88;;;5.78;;
10987;SDS011;5547;42.672;23.230;2023-03-19T15:07:32;9.13;;;6.38;;
10987;SDS011;5547;42.672;23.230;2023-03-19T15:10:50;10.20;;;6.55;;
10987;SDS011;5547;42.672;23.230;2023-03-19T15:17:28;9.80;;;6.95;;
10987;SDS011;5547;42.672;23.230;2023-03-19T15:20:32;10.30;;;7.43;;
10987;SDS011;5547;42.672;23.230;2023-03-19T15:23:39;9.82;;;6.53;;
10987;SDS011;5547;42.672;23.230;2023-03-19T15:26:43;10.02;;;6.70;;
10987;SDS011;5547;42.672;23.230;2023-03-19T15:29:45;9.67;;;5.90;;
10987;SDS011;5547;42.672;23.230;2023-03-19T15:32:45;10.20;;;6.53;;
10987;SDS011;5547;42.672;23.230;2023-03-19T15:35:46;11.60;;;6.90;;
10987;SDS011;5547;42.672;23.230;2023-03-19T15:38:50;11.43;;;7.85;;
10987;SDS011;5547;42.672;23.230;2023-03-19T15:41:55;14.53;;;9.03;;
10987;SDS011;5547;42.672;23.230;2023-03-19T15:44:58;11.93;;;9.02;;
10987;SDS011;5547;42.672;23.230;2023-03-19T15:48:14;13.43;;;8.27;;
10987;SDS011;5547;42.672;23.230;2023-03-19T15:51:16;13.20;;;9.55;;
10987;SDS011;5547;42.672;23.230;2023-03-19T15:54:18;12.77;;;9.50;;
10987;SDS011;5547;42.672;23.230;2023-03-19T15:57:19;14.18;;;9.80;;
10987;SDS011;5547;42.672;23.230;2023-03-19T16:00:23;13.52;;;9.85;;
10987;SDS011;5547;42.672;23.230;2023-03-19T16:03:25;15.47;;;11.37;;
10987;SDS011;5547;42.672;23.230;2023-03-19T16:06:30;17.50;;;10.93;;
10987;SDS011;5547;42.672;23.230;2023-03-19T16:09:35;16.30;;;10.32;;
10987;SDS011;5547;42.672;23.230;2023-03-19T16:12:37;13.90;;;9.97;;
10987;SDS011;5547;42.672;23.230;2023-03-19T16:15:46;14.00;;;9.85;;
10987;SDS011;5547;42.672;23.230;2023-03-19T16:18:51;17.30;;;11.57;;
10987;SDS011;5547;42.672;23.230;2023-03-19T16:21:53;18.58;;;13.93;;
10987;SDS011;5547;42.672;23.230;2023-03-19T16:24:54;15.57;;;12.13;;
10987;SDS011;5547;42.672;23.230;2023-03-19T16:27:55;15.00;;;10.98;;
10987;SDS011;5547;42.672;23.230;2023-03-19T16:30:55;15.02;;;10.93;;
10987;SDS011;5547;42.672;23.230;2023-03-19T16:33:56;15.87;;;10.77;;
10987;SDS011;5547;42.672;23.230;2023-03-19T16:36:57;15.38;;;10.80;;
10987;SDS011;5547;42.672;23.230;2023-03-19T16:40:14;21.60;;;14.23;;
10987;SDS011;5547;42.672;23.230;2023-03-19T16:43:22;23.27;;;15.52;;
10987;SDS011;5547;42.672;23.230;2023-03-19T16:46:24;22.55;;;15.10;;
10987;SDS011;5547;42.672;23.230;2023-03-19T16:49:25;20.90;;;13.65;;
10987;SDS011;5547;42.672;23.230;2023-03-19T16:52:25;18.73;;;12.60;;
10987;SDS011;5547;42.672;23.230;2023-03-19T16:55:30;19.10;;;13.67;;
10987;SDS011;5547;42.672;23.230;2023-03-19T16:58:35;18.02;;;13.45;;
10987;SDS011;5547;42.672;23.230;2023-03-19T17:01:41;20.63;;;14.38;;
10987;SDS011;5547;42.672;23.230;2023-03-19T17:04:42;20.20;;;13.87;;
10987;SDS011;5547;42.672;23.230;2023-03-19T17:07:43;17.15;;;11.20;;
10987;SDS011;5547;42.672;23.230;2023-03-19T17:10:46;14.57;;;9.97;;
10987;SDS011;5547;42.672;23.230;2023-03-19T17:13:50;12.63;;;8.60;;
10987;SDS011;5547;42.672;23.230;2023-03-19T17:16:51;14.93;;;9.18;;
10987;SDS011;5547;42.672;23.230;2023-03-19T17:19:54;12.43;;;8.32;;
10987;SDS011;5547;42.672;23.230;2023-03-19T17:22:54;11.63;;;8.13;;
10987;SDS011;5547;42.672;23.230;2023-03-19T17:25:55;13.88;;;8.63;;
10987;SDS011;5547;42.672;23.230;2023-03-19T17:28:56;10.60;;;8.53;;
10987;SDS011;5547;42.672;23.230;2023-03-19T17:31:57;10.25;;;8.05;;
10987;SDS011;5547;42.672;23.230;2023-03-19T17:35:00;11.10;;;8.10;;
10987;SDS011;5547;42.672;23.230;2023-03-19T17:38:01;13.38;;;8.65;;
10987;SDS011;5547;42.672;23.230;2023-03-19T17:41:07;11.97;;;8.87;;
10987;SDS011;5547;42.672;23.230;2023-03-19T17:44:12;10.82;;;8.25;;
10987;SDS011;5547;42.672;23.230;2023-03-19T17:47:14;11.73;;;8.25;;
10987;SDS011;5547;42.672;23.230;2023-03-19T17:50:17;11.70;;;8.13;;
10987;SDS011;5547;42.672;23.230;2023-03-19T17:53:23;11.33;;;7.77;;
10987;SDS011;5547;42.672;23.230;2023-03-19T17:56:24;13.27;;;8.68;;
10987;SDS011;5547;42.672;23.230;2023-03-19T17:59:25;10.68;;;8.68;;
10987;SDS011;5547;42.672;23.230;2023-03-19T18:02:26;12.40;;;8.77;;
10987;SDS011;5547;42.672;23.230;2023-03-19T18:05:28;13.15;;;8.43;;
10987;SDS011;5547;42.672;23.230;2023-03-19T18:08:29;13.63;;;8.73;;
10987;SDS011;5547;42.672;23.230;2023-03-19T18:11:30;14.52;;;9.65;;
10987;SDS011;5547;42.672;23.230;2023-03-19T18:14:30;12.73;;;8.33;;
10987;SDS011;5547;42.672;23.230;2023-03-19T18:17:30;11.30;;;7.23;;
10987;SDS011;5547;42.672;23.230;2023-03-19T18:20:32;10.67;;;6.80;;
10987;SDS011;5547;42.672;23.230;2023-03-19T18:23:35;11.10;;;7.40;;
10987;SDS011;5547;42.672;23.230;2023-03-19T18:26:36;10.83;;;6.27;;
10987;SDS011;5547;42.672;23.230;2023-03-19T18:29:36;8.97;;;5.87;;
10987;SDS011;5547;42.672;23.230;2023-03-19T18:32:37;10.53;;;5.60;;
10987;SDS011;5547;42.672;23.230;2023-03-19T18:35:42;8.90;;;6.05;;
10987;SDS011;5547;42.672;23.230;2023-03-19T18:38:44;9.20;;;5.40;;
10987;SDS011;5547;42.672;23.230;2023-03-19T18:41:44;8.90;;;5.83;;
10987;SDS011;5547;42.672;23.230;2023-03-19T18:44:45;10.90;;;6.33;;
10987;SDS011;5547;42.672;23.230;2023-03-19T18:47:46;9.70;;;7.07;;
10987;SDS011;5547;42.672;23.230;2023-03-19T18:50:47;8.20;;;5.63;;
10987;SDS011;5547;42.672;23.230;2023-03-19T18:53:48;8.25;;;6.38;;
10987;SDS011;5547;42.672;23.230;2023-03-19T18:56:49;9.03;;;5.80;;
10987;SDS011;5547;42.672;23.230;2023-03-19T18:59:49;9.90;;;5.70;;
10987;SDS011;5547;42.672;23.230;2023-03-19T19:02:50;8.73;;;6.50;;
10987;SDS011;5547;42.672;23.230;2023-03-19T19:05:52;11.02;;;7.53;;
10987;SDS011;5547;42.672;23.230;2023-03-19T19:08:52;11.00;;;6.80;;
10987;SDS011;5547;42.672;23.230;2023-03-19T19:11:53;8.53;;;5.50;;
10987;SDS011;5547;42.672;23.230;2023-03-19T19:14:56;9.77;;;6.63;;
10987;SDS011;5547;42.672;23.230;2023-03-19T19:17:57;14.02;;;9.23;;
10987;SDS011;5547;42.672;23.230;2023-03-19T19:20:59;14.43;;;10.43;;
10987;SDS011;5547;42.672;23.230;2023-03-19T19:24:00;17.95;;;13.50;;
10987;SDS011;5547;42.672;23.230;2023-03-19T19:27:01;22.47;;;15.67;;
10987;SDS011;5547;42.672;23.230;2023-03-19T19:30:02;23.33;;;18.07;;
10987;SDS011;5547;42.672;23.230;2023-03-19T19:33:02;21.63;;;15.48;;